KDVT/DVT METAR and TAF weather

Enter ICAO airport designator
Station Type Date Time Source
KDVT METAR 2021/02/28 02:53 UTC NOAA

KDVT 280253Z 22006KT 10SM CLR 16/M10 A2985 RMK AO2 SLP099 T01611100 53011


Station Type Date Time Source
KDVT Decoded METAR 2021/02/28 02:53 UTC NOAA

PHOENIX-DEER VALLEY MUN, AZ, United States (KDVT) 33-41N 112-04W 443M
Feb 27, 2021 - 09:53 PM EST / 2021.02.28 0253 UTC
Wind: from the SW (220 degrees) at 7 MPH (6 KT):0
Visibility: 10 mile(s):0
Sky conditions: clear
Temperature: 61.0 F (16.1 C)
Dew Point: 14.0 F (-10.0 C)
Relative Humidity: 15%
Pressure (altimeter): 29.85 in. Hg (1010 hPa)
Pressure tendency: 0.03 inches (1.1 hPa) higher than three hours ago
ob: KDVT 280253Z 22006KT 10SM CLR 16/M10 A2985 RMK AO2 SLP099 T01611100 53011
cycle: 3

Station Type Date Time Source
KDVT TAF 2021/02/27 18:42 UTC NOAA

TAF KDVT 271738Z 2718/2818 18005KT P6SM SKC
FM272000 24009KT P6SM SKC
FM280500 33007KT P6SM SKC
FM281500 34016KT P6SM SCT100

Example: see airport list